createdAt,value
2022-10-04T00:01:49.067Z,95427.19
2022-10-04T00:04:27.655Z,95429.67
2022-10-04T00:07:01.034Z,95433.38
2022-10-04T00:09:40.548Z,95428.41
2022-10-04T00:12:20.222Z,95431.88
2022-10-04T00:14:48.763Z,95439.02
2022-10-04T00:17:24.081Z,95438.35
2022-10-04T00:19:52.561Z,95439.17
2022-10-04T00:22:30.883Z,95438.36
2022-10-04T00:25:07.190Z,95438.89
2022-10-04T00:27:36.599Z,95436.70
2022-10-04T00:30:03.512Z,95440.05
2022-10-04T00:32:37.041Z,95438.54
2022-10-04T00:35:26.538Z,95440.95
2022-10-04T00:37:57.285Z,95436.02
2022-10-04T00:40:29.775Z,95433.39
2022-10-04T00:43:17.483Z,95429.49
2022-10-04T00:45:50.927Z,95429.45
2022-10-04T00:48:39.915Z,95430.08
2022-10-04T00:51:28.226Z,95429.52
2022-10-04T00:54:08.476Z,95432.05
2022-10-04T00:56:39.026Z,95428.30
2022-10-04T00:59:19.449Z,95422.64
2022-10-04T01:01:51.181Z,95419.94
2022-10-04T01:04:32.977Z,95422.40
2022-10-04T01:07:03.090Z,95421.91
2022-10-04T01:09:35.365Z,95421.16
2022-10-04T01:12:10.407Z,95424.51
2022-10-04T01:15:08.328Z,95419.11
2022-10-04T01:17:35.327Z,95423.23
2022-10-04T01:20:22.279Z,95419.86
2022-10-04T01:22:50.204Z,95425.41
2022-10-04T01:25:42.849Z,95425.71
2022-10-04T01:28:09.899Z,95425.66
2022-10-04T01:30:37.382Z,95427.91
2022-10-04T01:33:06.446Z,95426.65
2022-10-04T01:35:36.913Z,95427.44
2022-10-04T01:38:08.818Z,95425.77
2022-10-04T01:40:46.166Z,95428.15
2022-10-04T01:43:21.161Z,95428.90
2022-10-04T01:45:58.017Z,95429.45
2022-10-04T01:48:30.739Z,95435.71
2022-10-04T01:51:04.255Z,95438.00
2022-10-04T01:53:40.521Z,95440.67
2022-10-04T01:56:14.670Z,95439.00
2022-10-04T01:58:58.661Z,95437.95
2022-10-04T02:01:40.595Z,95442.13
2022-10-04T02:04:11.079Z,95444.36
2022-10-04T02:06:42.405Z,95445.02
2022-10-04T02:09:14.122Z,95444.39
2022-10-04T02:11:43.958Z,95439.16
2022-10-04T02:14:18.659Z,95436.34
2022-10-04T02:16:50.276Z,95434.63
2022-10-04T02:19:17.396Z,95432.52
2022-10-04T02:21:46.202Z,95434.35
2022-10-04T02:24:14.061Z,95434.41
2022-10-04T02:26:40.937Z,95438.02
2022-10-04T02:29:09.611Z,95443.39
2022-10-04T02:31:57.931Z,95443.45
2022-10-04T02:34:24.944Z,95446.05
2022-10-04T02:36:52.060Z,95450.41
2022-10-04T02:39:38.369Z,95452.31
2022-10-04T02:42:26.836Z,95452.11
2022-10-04T02:45:02.297Z,95455.20
2022-10-04T02:47:49.640Z,95449.67
2022-10-04T02:50:39.582Z,95451.45
2022-10-04T02:53:12.327Z,95450.65
2022-10-04T02:55:43.101Z,95453.20
2022-10-04T02:58:14.782Z,95455.67
2022-10-04T03:00:57.196Z,95453.88
2022-10-04T03:03:31.320Z,95452.48
2022-10-04T03:06:15.026Z,95450.52
2022-10-04T03:08:57.609Z,95444.73
2022-10-04T03:11:31.305Z,95447.02
2022-10-04T03:14:00.498Z,95443.51
2022-10-04T03:16:37.863Z,95448.91
2022-10-04T03:19:07.086Z,95460.08
2022-10-04T03:21:36.663Z,95466.18
2022-10-04T03:24:05.857Z,95461.23
2022-10-04T03:26:41.766Z,95457.88
2022-10-04T03:29:11.924Z,95455.65
2022-10-04T03:31:46.767Z,95458.14
2022-10-04T03:34:16.905Z,95457.20
2022-10-04T03:36:47.191Z,95460.64
2022-10-04T03:39:22.096Z,95459.21
2022-10-04T03:41:49.084Z,95462.44
2022-10-04T03:44:18.477Z,95463.98
2022-10-04T03:46:46.197Z,95463.72
2022-10-04T03:49:29.975Z,95463.25
2022-10-04T03:51:59.018Z,95460.69
2022-10-04T03:54:27.525Z,95462.11
2022-10-04T03:56:55.930Z,95460.60
2022-10-04T03:59:26.089Z,95459.80
2022-10-04T04:02:09.018Z,95455.80
2022-10-04T04:05:05.258Z,95451.02
2022-10-04T04:07:46.351Z,95456.72
2022-10-04T04:10:21.342Z,95455.42
2022-10-04T04:12:54.623Z,95456.08
2022-10-04T04:15:22.091Z,95458.66
2022-10-04T04:17:54.142Z,95459.94
2022-10-04T04:20:28.979Z,95455.91
2022-10-04T04:23:04.891Z,95458.17
2022-10-04T04:25:37.559Z,95456.85
2022-10-04T04:28:18.797Z,95463.55
2022-10-04T04:30:49.811Z,95461.64
2022-10-04T04:33:35.164Z,95463.09
2022-10-04T04:36:07.333Z,95467.20
2022-10-04T04:38:35.070Z,95469.04
2022-10-04T04:41:10.739Z,95473.05
2022-10-04T04:43:43.530Z,95480.63
2022-10-04T04:46:28.087Z,95483.20
2022-10-04T04:49:03.798Z,95485.37
2022-10-04T04:51:32.785Z,95485.89
2022-10-04T04:54:04.632Z,95488.08
2022-10-04T04:56:34.779Z,95487.73
2022-10-04T04:59:04.700Z,95485.46
2022-10-04T05:01:41.475Z,95487.17
2022-10-04T05:04:08.441Z,95493.23
2022-10-04T05:06:39.460Z,95493.52
2022-10-04T05:09:26.026Z,95494.08
2022-10-04T05:12:01.417Z,95489.51
2022-10-04T05:14:30.919Z,95495.07
2022-10-04T05:17:02.140Z,95498.63
2022-10-04T05:19:34.867Z,95502.17
2022-10-04T05:22:16.548Z,95505.77
2022-10-04T05:25:08.604Z,95507.35
2022-10-04T05:27:44.756Z,95508.83
2022-10-04T05:30:48.964Z,95519.55
2022-10-04T05:33:57.738Z,95514.84
2022-10-04T05:36:53.447Z,95519.89
2022-10-04T05:39:37.349Z,95525.72
2022-10-04T05:43:04.978Z,95533.16
2022-10-04T05:45:43.485Z,95533.58
2022-10-04T05:48:27.965Z,95539.73
2022-10-04T07:51:15.293Z,95646.88
2022-10-04T07:54:21.784Z,95645.92
2022-10-04T07:57:35.649Z,95648.82
2022-10-04T08:00:22.150Z,95650.33
2022-10-04T08:03:14.884Z,95652.51
2022-10-04T08:06:49.939Z,95644.98
2022-10-04T08:10:08.422Z,95650.65
2022-10-04T08:13:12.497Z,95651.25
2022-10-04T08:15:47.426Z,95654.77
2022-10-04T08:18:20.529Z,95666.53
2022-10-04T08:21:15.712Z,95671.55
2022-10-04T08:23:56.839Z,95673.20
2022-10-04T08:26:49.804Z,95673.44
2022-10-04T08:29:51.817Z,95671.56
2022-10-04T08:32:37.609Z,95677.45
2022-10-04T08:35:30.787Z,95681.52
2022-10-04T08:38:26.873Z,95685.39
2022-10-04T08:41:16.121Z,95679.35
2022-10-04T08:43:59.312Z,95685.34
2022-10-04T08:46:59.072Z,95680.80
2022-10-04T08:49:46.494Z,95689.11
2022-10-04T08:52:59.390Z,95687.98
2022-10-04T08:55:49.192Z,95693.02
2022-10-04T08:58:38.671Z,95692.38
2022-10-04T09:01:44.261Z,95691.36
2022-10-04T09:04:27.260Z,95691.56
2022-10-04T09:07:16.876Z,95694.05
2022-10-04T09:10:13.350Z,95693.29
2022-10-04T09:13:05.902Z,95691.56
2022-10-04T09:16:29.699Z,95688.68
2022-10-04T09:19:50.110Z,95695.23
2022-10-04T09:23:08.909Z,95697.91
2022-10-04T09:26:02.092Z,95699.06
2022-10-04T09:29:20.672Z,95694.34
2022-10-04T09:32:08.091Z,95701.27
2022-10-04T09:35:08.689Z,95693.60
2022-10-04T09:38:03.478Z,95696.61
2022-10-04T09:41:16.519Z,95691.33
2022-10-04T09:43:46.867Z,95699.89
2022-10-04T09:46:42.011Z,95706.55
2022-10-04T09:49:37.562Z,95707.63
2022-10-04T09:52:48.646Z,95709.23
2022-10-04T09:55:30.784Z,95712.52
2022-10-04T09:58:17.342Z,95714.02
2022-10-04T10:01:08.426Z,95722.39
2022-10-04T10:04:09.600Z,95729.30
2022-10-04T10:06:57.940Z,95735.29
2022-10-04T10:10:28.076Z,95747.67
2022-10-04T10:13:19.738Z,95749.31
2022-10-04T10:16:02.897Z,95752.86
2022-10-04T10:18:46.141Z,95749.54
2022-10-04T10:21:32.285Z,95755.05
2022-10-04T10:24:21.009Z,95759.00
2022-10-04T10:27:39.099Z,95756.75
2022-10-04T10:30:33.738Z,95759.52
2022-10-04T10:33:26.712Z,95760.04
2022-10-04T10:36:08.388Z,95761.94
2022-10-04T10:38:45.972Z,95762.65
2022-10-04T10:41:38.434Z,95764.27
2022-10-04T10:44:23.611Z,95763.73
2022-10-04T10:47:08.097Z,95770.90
2022-10-04T10:49:44.225Z,95770.00
2022-10-04T10:52:44.429Z,95767.41
2022-10-04T10:55:15.255Z,95766.23
2022-10-04T10:58:16.097Z,95764.98
2022-10-04T11:00:58.929Z,95765.38
2022-10-04T11:03:57.265Z,95766.27
2022-10-04T11:06:42.296Z,95761.64
2022-10-04T11:09:30.362Z,95757.04
2022-10-04T11:12:02.022Z,95752.11
2022-10-04T11:15:08.881Z,95760.73
2022-10-04T11:17:56.011Z,95759.90
2022-10-04T11:20:51.485Z,95764.98
2022-10-04T11:23:40.030Z,95762.27
2022-10-04T11:26:26.403Z,95763.61
2022-10-04T11:29:12.224Z,95763.15
2022-10-04T11:32:20.509Z,95761.91
2022-10-04T11:35:28.945Z,95759.41
2022-10-04T11:38:06.660Z,95760.22
2022-10-04T11:40:39.886Z,95760.06
2022-10-04T11:43:31.562Z,95760.92
2022-10-04T11:46:35.594Z,95757.27
2022-10-04T11:49:11.660Z,95758.02
2022-10-04T11:52:07.581Z,95763.05
2022-10-04T11:55:36.869Z,95763.09
2022-10-04T11:58:15.608Z,95770.82
2022-10-04T12:01:14.948Z,95771.81
2022-10-04T12:04:12.430Z,95769.41
2022-10-04T12:06:42.790Z,95771.56
2022-10-04T12:09:20.198Z,95768.49
2022-10-04T12:12:37.816Z,95769.81
2022-10-04T12:15:40.562Z,95768.40
2022-10-04T12:18:46.934Z,95774.52
2022-10-04T12:21:51.874Z,95779.65
2022-10-04T12:24:21.324Z,95779.69
2022-10-04T12:27:07.310Z,95780.08
2022-10-04T12:30:04.213Z,95776.13
2022-10-04T12:32:39.567Z,95777.15
2022-10-04T12:35:44.296Z,95777.66
2022-10-04T12:38:32.192Z,95778.17
2022-10-04T12:41:24.520Z,95778.11
2022-10-04T12:44:12.319Z,95775.61
2022-10-04T12:46:57.773Z,95770.00
2022-10-04T12:49:46.138Z,95773.98
2022-10-04T12:52:20.724Z,95773.94
2022-10-04T12:55:17.294Z,95777.12
2022-10-04T12:58:22.292Z,95782.72
2022-10-04T13:00:53.105Z,95786.77
2022-10-04T13:03:59.710Z,95786.12
2022-10-04T13:06:43.818Z,95784.08
2022-10-04T13:09:20.204Z,95790.20
2022-10-04T13:12:02.897Z,95793.81
2022-10-04T13:15:03.925Z,95790.95
2022-10-04T13:17:50.863Z,95794.75
2022-10-04T13:20:45.357Z,95798.74
2022-10-04T13:23:24.617Z,95800.33
2022-10-04T13:25:58.778Z,95804.23
2022-10-04T13:28:48.092Z,95805.61
2022-10-04T13:31:34.696Z,95809.02
2022-10-04T13:34:11.423Z,95808.23
2022-10-04T13:36:45.705Z,95814.64
2022-10-04T13:39:27.954Z,95814.36
2022-10-04T13:42:34.157Z,95812.70
2022-10-04T13:45:17.929Z,95813.77
2022-10-04T13:47:59.979Z,95814.47
2022-10-04T13:50:32.444Z,95817.13
2022-10-04T13:53:36.818Z,95817.33
2022-10-04T13:56:34.051Z,95814.59
2022-10-04T13:59:08.879Z,95820.58
2022-10-04T14:01:41.781Z,95824.17
2022-10-04T14:04:30.492Z,95827.58
2022-10-04T14:07:17.614Z,95833.13
2022-10-04T14:09:53.549Z,95833.36
2022-10-04T14:12:44.644Z,95839.05
2022-10-04T14:15:59.561Z,95838.39
2022-10-04T14:18:35.583Z,95843.06
2022-10-04T14:21:25.891Z,95841.06
2022-10-04T14:23:59.926Z,95847.23
2022-10-04T14:26:51.562Z,95847.39
2022-10-04T14:29:45.893Z,95852.48
2022-10-04T14:32:35.147Z,95852.27
2022-10-04T14:35:11.031Z,95854.58
2022-10-04T14:41:06.326Z,95863.59
2022-10-04T14:43:58.386Z,95861.66
2022-10-04T14:46:31.460Z,95867.59
2022-10-04T14:49:27.263Z,95870.17
2022-10-04T14:52:35.968Z,95868.80
2022-10-04T14:55:32.958Z,95876.42
2022-10-04T14:58:16.231Z,95882.64
2022-10-04T15:01:18.269Z,95885.98
2022-10-04T15:04:16.297Z,95886.42
2022-10-04T15:07:01.550Z,95886.98
2022-10-04T15:09:56.554Z,95889.98
2022-10-04T15:13:14.440Z,95889.70
2022-10-04T15:15:50.227Z,95889.98
2022-10-04T15:18:30.633Z,95892.98
2022-10-04T15:21:33.335Z,95895.09
2022-10-04T15:24:13.378Z,95900.92
2022-10-04T15:26:49.431Z,95901.61
2022-10-04T15:29:45.400Z,95901.96
2022-10-04T15:32:46.583Z,95904.77
2022-10-04T15:35:34.585Z,95909.98
2022-10-04T15:38:24.591Z,95913.39
2022-10-04T15:41:29.146Z,95917.63
2022-10-04T15:44:14.748Z,95922.91
2022-10-04T15:46:56.707Z,95924.09
2022-10-04T15:49:41.814Z,95933.25
2022-10-04T15:52:44.209Z,95931.80
2022-10-04T15:56:02.051Z,95933.14
2022-10-04T15:58:53.373Z,95938.33
2022-10-04T16:01:30.056Z,95940.62
2022-10-04T16:04:15.809Z,95945.89
2022-10-04T16:06:55.205Z,95947.44
2022-10-04T16:09:24.586Z,95947.17
2022-10-04T16:12:20.258Z,95952.63
2022-10-04T16:14:47.400Z,95960.51
2022-10-04T16:17:45.986Z,95963.94
2022-10-04T16:20:54.742Z,95966.98
2022-10-04T16:23:26.001Z,95974.12
2022-10-04T16:26:02.829Z,95981.10
2022-10-04T16:28:41.661Z,95985.18
2022-10-04T16:31:20.101Z,95996.36
2022-10-04T16:34:26.235Z,95998.84
2022-10-04T16:37:16.222Z,95999.79
2022-10-04T16:40:01.189Z,95998.77
2022-10-04T16:42:53.467Z,95998.55
2022-10-04T16:46:05.994Z,95999.48
2022-10-04T16:48:37.106Z,96005.14
2022-10-04T16:51:15.830Z,96006.73
2022-10-04T16:54:00.835Z,96010.63
2022-10-04T16:56:50.240Z,96013.54
2022-10-04T16:59:37.595Z,96007.99
2022-10-04T17:02:23.242Z,96012.94
2022-10-04T17:05:22.137Z,96017.52
2022-10-04T17:08:16.470Z,96018.38
2022-10-04T17:10:49.217Z,96019.91
2022-10-04T17:13:34.196Z,96019.77
2022-10-04T17:16:07.066Z,96017.00
2022-10-04T17:18:51.247Z,96024.50
2022-10-04T17:21:45.634Z,96030.40
2022-10-04T17:24:24.221Z,96029.95
2022-10-04T17:27:29.180Z,96040.78
2022-10-04T17:30:16.500Z,96049.80
2022-10-04T17:32:46.202Z,96048.95
2022-10-04T17:35:27.906Z,96051.00
2022-10-04T17:38:05.632Z,96058.39
2022-10-04T17:41:13.891Z,96058.45
2022-10-04T17:43:45.977Z,96062.48
2022-10-04T17:46:23.722Z,96067.51
2022-10-04T17:49:20.049Z,96070.35
2022-10-04T17:52:11.866Z,96073.50
2022-10-04T17:55:01.137Z,96078.02
2022-10-04T17:57:42.324Z,96081.42
2022-10-04T18:00:15.673Z,96087.23
2022-10-04T18:02:54.684Z,96089.86
2022-10-04T18:05:28.459Z,96090.12
2022-10-04T18:08:05.649Z,96091.48
2022-10-04T18:10:38.120Z,96096.33
2022-10-04T18:13:25.078Z,96097.77
2022-10-04T18:15:56.793Z,96099.58
2022-10-04T18:18:29.441Z,96099.79
2022-10-04T18:20:56.132Z,96105.50
2022-10-04T18:23:28.376Z,96107.17
2022-10-04T18:26:02.545Z,96106.41
2022-10-04T18:28:32.095Z,96104.88
2022-10-04T18:31:12.816Z,96112.34
2022-10-04T18:33:39.582Z,96110.11
2022-10-04T18:36:21.813Z,96111.98
2022-10-04T18:39:13.791Z,96115.59
2022-10-04T18:42:15.744Z,96121.92
2022-10-04T18:44:50.812Z,96128.20
2022-10-04T18:47:37.518Z,96131.42
2022-10-04T18:50:21.725Z,96136.23
2022-10-04T18:53:00.635Z,96138.89
2022-10-04T18:55:45.764Z,96143.30
2022-10-04T18:58:39.646Z,96143.23
2022-10-04T19:01:59.767Z,96139.52
2022-10-04T19:04:56.477Z,96137.67
2022-10-04T19:07:39.050Z,96143.98
2022-10-04T19:10:11.105Z,96150.55
2022-10-04T19:12:45.708Z,96158.24
2022-10-04T19:15:37.469Z,96155.71
2022-10-04T19:18:24.566Z,96156.95
2022-10-04T19:21:00.305Z,96161.51
2022-10-04T19:23:33.396Z,96163.58
2022-10-04T19:26:31.760Z,96166.05
2022-10-04T19:29:20.914Z,96162.85
2022-10-04T19:31:59.204Z,96160.60
2022-10-04T19:34:31.912Z,96162.79
2022-10-04T19:37:05.270Z,96163.48
2022-10-04T19:39:45.106Z,96162.98
2022-10-04T19:42:23.477Z,96162.73
2022-10-04T19:45:14.579Z,96163.61
2022-10-04T19:47:57.270Z,96168.28
2022-10-04T19:50:30.757Z,96169.30
2022-10-04T19:53:16.029Z,96171.25
2022-10-04T19:55:51.889Z,96175.30
2022-10-04T19:58:26.701Z,96174.64
2022-10-04T20:00:54.671Z,96177.61
2022-10-04T20:03:22.092Z,96175.63
2022-10-04T20:05:52.700Z,96182.49
2022-10-04T20:08:47.676Z,96184.83
2022-10-04T20:11:17.794Z,96184.81
2022-10-04T20:13:52.319Z,96188.06
2022-10-04T20:16:54.024Z,96186.84
2022-10-04T20:19:37.357Z,96194.38
2022-10-04T20:22:07.113Z,96200.68
2022-10-04T20:24:37.088Z,96203.41
2022-10-04T20:27:06.367Z,96205.48
2022-10-04T20:29:36.254Z,96206.00
2022-10-04T20:32:06.628Z,96210.83
2022-10-04T20:34:37.522Z,96209.34
2022-10-04T20:37:08.820Z,96217.27
2022-10-04T20:39:42.821Z,96217.08
2022-10-04T20:42:31.097Z,96224.45
2022-10-04T20:45:09.880Z,96232.98
2022-10-04T20:47:48.500Z,96233.64
2022-10-04T20:50:19.494Z,96235.35
2022-10-04T20:52:58.409Z,96237.23
2022-10-04T20:55:39.483Z,96236.68
2022-10-04T20:58:24.496Z,96235.70
2022-10-04T21:00:53.823Z,96237.66
2022-10-04T21:03:21.594Z,96239.39
2022-10-04T21:06:02.755Z,96240.91
2022-10-04T21:08:30.563Z,96244.69
2022-10-04T21:11:20.672Z,96249.55
2022-10-04T21:13:49.215Z,96249.77
2022-10-04T21:16:39.341Z,96255.70
2022-10-04T21:19:42.459Z,96252.30
2022-10-04T21:22:09.022Z,96254.63
2022-10-04T21:24:52.573Z,96251.95
2022-10-04T21:27:28.415Z,96259.30
2022-10-04T21:29:56.390Z,96260.41
2022-10-04T21:32:25.015Z,96263.73
2022-10-04T21:34:54.183Z,96265.70
2022-10-04T21:37:22.310Z,96267.59
2022-10-04T21:39:49.386Z,96272.11
2022-10-04T21:42:16.266Z,96269.89
2022-10-04T21:44:43.392Z,96266.72
2022-10-04T21:47:10.869Z,96268.45
2022-10-04T21:49:37.645Z,96266.39
2022-10-04T21:52:04.941Z,96271.23
2022-10-04T21:54:31.813Z,96273.67
2022-10-04T21:56:58.657Z,96274.61
2022-10-04T21:59:25.389Z,96274.05
2022-10-04T22:01:52.590Z,96273.47
2022-10-04T22:04:19.671Z,96275.65
2022-10-04T22:06:46.728Z,96275.96
2022-10-04T22:09:13.748Z,96277.40
2022-10-04T22:11:40.792Z,96278.83
2022-10-04T22:14:07.793Z,96285.11
2022-10-04T22:16:34.670Z,96284.43
2022-10-04T22:19:01.456Z,96294.52
2022-10-04T22:21:28.333Z,96294.21
2022-10-04T22:23:55.893Z,96296.16
2022-10-04T22:26:25.464Z,96295.89
2022-10-04T22:28:55.257Z,96296.42
2022-10-04T22:31:28.139Z,96299.71
2022-10-04T22:33:55.755Z,96294.44
2022-10-04T22:36:26.864Z,96297.44
2022-10-04T22:38:59.954Z,96297.97
2022-10-04T22:41:30.604Z,96296.98
2022-10-04T22:44:02.376Z,96301.35
2022-10-04T22:46:38.529Z,96302.05
2022-10-04T22:49:11.238Z,96301.94
2022-10-04T22:51:40.824Z,96306.86
2022-10-04T22:54:17.142Z,96305.25
2022-10-04T22:56:44.565Z,96307.02
2022-10-04T22:59:19.018Z,96307.69
2022-10-04T23:01:46.133Z,96314.59
2022-10-04T23:04:24.478Z,96315.77
2022-10-04T23:06:52.773Z,96321.82
2022-10-04T23:09:20.042Z,96327.29
2022-10-04T23:11:46.946Z,96331.40
2022-10-04T23:14:14.220Z,96332.70
2022-10-04T23:16:42.273Z,96332.02
2022-10-04T23:19:11.870Z,96334.39
2022-10-04T23:21:42.901Z,96332.14
2022-10-04T23:24:12.364Z,96333.40
2022-10-04T23:26:40.297Z,96334.57
2022-10-04T23:29:18.395Z,96336.81
2022-10-04T23:31:46.813Z,96335.64
2022-10-04T23:34:19.751Z,96335.37
2022-10-04T23:36:48.960Z,96337.74
2022-10-04T23:39:30.738Z,96337.67
2022-10-04T23:41:58.237Z,96339.11
2022-10-04T23:44:33.128Z,96344.06
2022-10-04T23:47:00.962Z,96349.38
2022-10-04T23:49:28.234Z,96356.64
2022-10-04T23:52:01.311Z,96358.89
2022-10-04T23:54:28.726Z,96354.91
2022-10-04T23:56:55.359Z,96357.92
2022-10-04T23:59:24.668Z,96359.56
